Flight Track Log - Related Links

Times and Time Zones

All times are in EDT time to prevent confusion due to time zone crossing. See the RPA4886 flight status page for this flight to view local times or setup timezone preferences in your user account.

Time Position Orientation Groundspeed Altitude Reporting Facility
EDT Latitude Longitude Course Direction KTS MPH feet Rate Location/Type
Wed 07:24:41 PM 38.9667 -77.5667 North 214 246 3,100  Level Potomac TRACON
Wed 07:25:36 PM 39.0167 -77.6000 333° Northwest 246 283 4,700 2,087 Climbing Potomac TRACON
Wed 07:26:36 PM 39.0833 -77.5833 11° North 240 276 7,100 2,161 Climbing Potomac TRACON
Wed 07:29:07 PM 39.2331 -77.5450 11° North 248 285 12,300 1,840 Climbing Washington Center
Wed 07:30:00 PM 39.7914 -77.4500 North  Level FlightAware Approximate
Wed 07:30:08 PM 39.3042 -77.5281 10° North 248 285 13,600  Level Washington Center
Wed 07:31:05 PM 39.3794 -77.5114 10° North 262 302 14,600 1,119 Climbing Washington Center
Wed 07:32:06 PM 39.4633 -77.4947 North 280 322 15,800 1,357 Climbing Washington Center
Wed 07:33:53 PM 39.6111 -77.4600 10° North 296 341 18,400 1,329 Climbing New York Center
Wed 07:34:53 PM 39.6906 -77.4539 North 296 341 19,500 1,050 Climbing New York Center
Wed 07:35:53 PM 39.7742 -77.4539 360° North 296 341 20,500 744 Climbing New York Center
Wed 07:36:54 PM 39.8594 -77.4539 360° North 296 341 21,000 250 Climbing New York Center
Wed 07:37:53 PM 39.9514 -77.4517 North 311 358 21,000  Level New York Center
Wed 07:38:52 PM 40.0497 -77.4475 North 332 382 21,000  Level New York Center
Wed 07:39:53 PM 40.1478 -77.4461 North 346 398 21,000  Level New York Center
Wed 07:40:55 PM 40.2400 -77.4006 21° North 348 400 21,000  Level New York Center
Wed 07:41:53 PM 40.3244 -77.3433 27° Northeast 343 395 21,000 458 Level New York Center
Wed 07:42:53 PM 40.4175 -77.2839 26° Northeast 346 398 21,900 942 Climbing New York Center
Wed 07:43:54 PM 40.4975 -77.2314 27° Northeast 334 384 22,900 555 Climbing New York Center
Wed 07:44:52 PM 40.5772 -77.1817 25° Northeast 318 366 23,000 50 Climbing New York Center
Wed 07:45:55 PM 40.6614 -77.1292 25° Northeast 318 366 23,000  Level New York Center
Wed 07:46:53 PM 40.7436 -77.0739 27° Northeast 318 366 23,000  Level New York Center
Wed 07:47:53 PM 40.8297 -77.0186 26° Northeast 328 377 23,000  Level New York Center
Wed 07:48:54 PM 40.9183 -76.9608 26° Northeast 333 383 23,000  Level New York Center
Wed 07:49:53 PM 41.0025 -76.9053 26° Northeast 338 389 23,000  Level New York Center
Wed 07:50:53 PM 41.0908 -76.8500 25° Northeast 338 389 23,000  Level New York Center
Wed 07:51:54 PM 41.1792 -76.7889 28° Northeast 338 389 23,000  Level New York Center
Wed 07:52:54 PM 41.2633 -76.7356 25° Northeast 338 389 23,000  Level New York Center
Wed 07:53:53 PM 41.3494 -76.6797 26° Northeast 338 389 23,000  Level New York Center
Wed 07:54:53 PM 41.4314 -76.6233 27° Northeast 338 389 23,000  Level New York Center
Wed 07:55:54 PM 41.5086 -76.5744 25° Northeast 323 372 23,000  Level New York Center
Wed 07:56:54 PM 41.5711 -76.5328 27° Northeast 317 365 23,000  Level New York Center
Wed 07:58:39 PM 41.6675 -76.3589 53° Northeast 314 361 23,000  Level Boston Center
Wed 07:59:39 PM 41.6922 -76.2519 73° East 309 356 23,000  Level Boston Center
Wed 08:00:39 PM 41.6961 -76.1353 87° East 296 341 23,000  Level Boston Center
Wed 08:01:39 PM 41.7347 -76.0347 63° Northeast 295 339 23,000  Level Boston Center
Wed 08:02:39 PM 41.7839 -75.9317 57° Northeast 300 345 23,000  Level Boston Center
Wed 08:03:39 PM 41.8306 -75.8283 59° Northeast 310 357 23,000  Level Boston Center
Wed 08:04:39 PM 41.8817 -75.7250 56° Northeast 317 365 23,000  Level Boston Center
Wed 08:05:51 PM 41.9306 -75.6161 59° Northeast 324 373 23,000  Level Boston Center
Wed 08:06:51 PM 41.9903 -75.4906 57° Northeast 329 379 23,000  Level Boston Center
Wed 08:07:51 PM 42.0392 -75.3839 58° Northeast 329 379 23,000  Level Boston Center
Wed 08:08:51 PM 42.0878 -75.2769 58° Northeast 329 379 23,000 -500 Level Boston Center
Wed 08:09:51 PM 42.1361 -75.1728 58° Northeast 329 379 22,000 -1,850 Descending Boston Center
Wed 08:10:51 PM 42.1822 -75.0711 59° Northeast 323 372 19,300 -2,800 Descending Boston Center
Wed 08:11:51 PM 42.2328 -74.9639 57° Northeast 323 372 16,400 -2,973 Descending Boston Center
Wed 08:12:44 PM 42.2808 -74.8564 59° Northeast 334 384 13,700 -2,602 Descending Boston Center
Wed 08:13:44 PM 42.3247 -74.7542 60° Northeast 322 371 11,500 -1,289 Descending Boston Center
Wed 08:14:45 PM 42.3683 -74.6544 59° Northeast 306 352 11,100 -246 Descending Boston Center
Wed 08:15:46 PM 42.4161 -74.5550 57° Northeast 321 369 11,000 -99 Descending Boston Center
Wed 08:16:46 PM 42.4597 -74.4550 59° Northeast 314 361 10,900 -744 Descending Boston Center
Wed 08:17:47 PM 42.5258 -74.3672 44° Northeast 293 337 9,500 -1,426 Descending Boston Center
Wed 08:18:48 PM 42.5811 -74.2928 45° Northeast 289 333 8,000 -1,670 Descending Boston Center
Wed 08:19:42 PM 42.6261 -74.2264 47° Northeast 271 312 6,300 -1,854 Descending Boston Center
Wed 08:20:51 PM 42.6878 -74.1406 46° Northeast 267 307 4,200 -1,266 Descending Boston Center
Wed 08:21:50 PM 42.7344 -74.0794 44° Northeast 252 290 3,600 -353 Descending Boston Center
Wed 08:22:50 PM 42.7856 -74.0103 45° Northeast 247 284 3,500 -50 Descending Boston Center
Wed 08:23:51 PM 42.8344 -73.9492 43° Northeast 252 290 3,500 -496 Level Boston Center
Wed 08:24:51 PM 42.8667 -73.8678 62° Northeast 214 246 2,500 -1,000 Descending Boston Center

Login

Don't have an account? Register now (free) for customized features, flight alerts, and more!